sensor_id;sensor_type;location;lat;lon;timestamp;pressure;altitude;pressure_sealevel;temperature
68939;BMP180;59064;45.294;11.816;2022-12-18T00:01:24;102466.20;;;4.34
68939;BMP180;59064;45.294;11.816;2022-12-18T00:03:52;102465.00;;;4.30
68939;BMP180;59064;45.294;11.816;2022-12-18T00:06:19;102468.00;;;4.40
68939;BMP180;59064;45.294;11.816;2022-12-18T00:08:45;102475.00;;;4.40
68939;BMP180;59064;45.294;11.816;2022-12-18T00:11:17;102481.40;;;4.46
68939;BMP180;59064;45.294;11.816;2022-12-18T00:13:44;102481.60;;;4.50
68939;BMP180;59064;45.294;11.816;2022-12-18T00:16:12;102484.80;;;4.50
68939;BMP180;59064;45.294;11.816;2022-12-18T00:18:39;102479.40;;;4.50
68939;BMP180;59064;45.294;11.816;2022-12-18T00:21:08;102487.80;;;4.60
68939;BMP180;59064;45.294;11.816;2022-12-18T00:23:37;102486.20;;;4.60
68939;BMP180;59064;45.294;11.816;2022-12-18T00:26:06;102475.80;;;4.60
68939;BMP180;59064;45.294;11.816;2022-12-18T00:28:33;102472.20;;;4.60
68939;BMP180;59064;45.294;11.816;2022-12-18T00:31:04;102470.00;;;4.60
68939;BMP180;59064;45.294;11.816;2022-12-18T00:33:32;102483.60;;;4.60
68939;BMP180;59064;45.294;11.816;2022-12-18T00:36:08;102492.00;;;4.58
68939;BMP180;59064;45.294;11.816;2022-12-18T00:38:36;102481.40;;;4.60
68939;BMP180;59064;45.294;11.816;2022-12-18T00:41:03;102486.20;;;4.50
68939;BMP180;59064;45.294;11.816;2022-12-18T00:43:29;102490.80;;;4.50
68939;BMP180;59064;45.294;11.816;2022-12-18T00:45:56;102492.60;;;4.50
68939;BMP180;59064;45.294;11.816;2022-12-18T00:48:21;102492.60;;;4.50
68939;BMP180;59064;45.294;11.816;2022-12-18T00:50:49;102493.40;;;4.50
68939;BMP180;59064;45.294;11.816;2022-12-18T00:53:16;102490.80;;;4.50
68939;BMP180;59064;45.294;11.816;2022-12-18T00:55:42;102503.40;;;4.42
68939;BMP180;59064;45.294;11.816;2022-12-18T00:58:09;102503.60;;;4.42
68939;BMP180;59064;45.294;11.816;2022-12-18T01:00:36;102500.40;;;4.40
68939;BMP180;59064;45.294;11.816;2022-12-18T01:03:02;102501.80;;;4.40
68939;BMP180;59064;45.294;11.816;2022-12-18T01:05:28;102496.80;;;4.32
68939;BMP180;59064;45.294;11.816;2022-12-18T01:07:55;102505.20;;;4.30
68939;BMP180;59064;45.294;11.816;2022-12-18T01:10:23;102510.40;;;4.30
68939;BMP180;59064;45.294;11.816;2022-12-18T01:12:50;102511.00;;;4.30
68939;BMP180;59064;45.294;11.816;2022-12-18T01:15:17;102511.00;;;4.30
68939;BMP180;59064;45.294;11.816;2022-12-18T01:17:43;102513.40;;;4.30
68939;BMP180;59064;45.294;11.816;2022-12-18T01:20:11;102515.20;;;4.30
68939;BMP180;59064;45.294;11.816;2022-12-18T01:22:38;102510.40;;;4.30
68939;BMP180;59064;45.294;11.816;2022-12-18T01:25:05;102511.60;;;4.30
68939;BMP180;59064;45.294;11.816;2022-12-18T01:27:33;102523.60;;;4.30
68939;BMP180;59064;45.294;11.816;2022-12-18T01:30:00;102532.00;;;4.30
68939;BMP180;59064;45.294;11.816;2022-12-18T01:32:28;102532.80;;;4.30
68939;BMP180;59064;45.294;11.816;2022-12-18T01:34:55;102536.40;;;4.28
68939;BMP180;59064;45.294;11.816;2022-12-18T01:37:21;102541.60;;;4.30
68939;BMP180;59064;45.294;11.816;2022-12-18T01:39:47;102547.40;;;4.30
68939;BMP180;59064;45.294;11.816;2022-12-18T01:42:16;102551.20;;;4.30
68939;BMP180;59064;45.294;11.816;2022-12-18T01:50:22;102556.40;;;4.40
68939;BMP180;59064;45.294;11.816;2022-12-18T01:52:48;102559.00;;;4.40
68939;BMP180;59064;45.294;11.816;2022-12-18T01:55:18;102562.40;;;4.40
68939;BMP180;59064;45.294;11.816;2022-12-18T01:57:45;102564.20;;;4.50
68939;BMP180;59064;45.294;11.816;2022-12-18T02:00:15;102566.00;;;4.50
68939;BMP180;59064;45.294;11.816;2022-12-18T02:02:43;102567.40;;;4.50
68939;BMP180;59064;45.294;11.816;2022-12-18T02:05:10;102567.00;;;4.50
68939;BMP180;59064;45.294;11.816;2022-12-18T02:12:56;102577.60;;;4.60
68939;BMP180;59064;45.294;11.816;2022-12-18T02:15:42;102582.00;;;4.60
68939;BMP180;59064;45.294;11.816;2022-12-18T02:18:32;102583.00;;;4.60
68939;BMP180;59064;45.294;11.816;2022-12-18T02:28:57;102595.40;;;4.50
68939;BMP180;59064;45.294;11.816;2022-12-18T02:31:28;102601.40;;;4.52
68939;BMP180;59064;45.294;11.816;2022-12-18T02:33:59;102602.40;;;4.52
68939;BMP180;59064;45.294;11.816;2022-12-18T02:36:28;102598.00;;;4.50
68939;BMP180;59064;45.294;11.816;2022-12-18T02:38:55;102602.80;;;4.50
68939;BMP180;59064;45.294;11.816;2022-12-18T02:41:22;102604.20;;;4.50
68939;BMP180;59064;45.294;11.816;2022-12-18T02:43:56;102603.60;;;4.48
68939;BMP180;59064;45.294;11.816;2022-12-18T02:46:32;102609.40;;;4.42
68939;BMP180;59064;45.294;11.816;2022-12-18T02:54:52;102629.00;;;4.40
68939;BMP180;59064;45.294;11.816;2022-12-18T02:57:42;102628.60;;;4.40
68939;BMP180;59064;45.294;11.816;2022-12-18T03:00:15;102635.40;;;4.40
68939;BMP180;59064;45.294;11.816;2022-12-18T03:02:48;102631.00;;;4.40
68939;BMP180;59064;45.294;11.816;2022-12-18T03:05:27;102640.40;;;4.40
68939;BMP180;59064;45.294;11.816;2022-12-18T03:08:01;102631.80;;;4.40
68939;BMP180;59064;45.294;11.816;2022-12-18T03:10:32;102638.60;;;4.40
68939;BMP180;59064;45.294;11.816;2022-12-18T03:13:06;102638.40;;;4.40
68939;BMP180;59064;45.294;11.816;2022-12-18T03:15:45;102630.80;;;4.40
68939;BMP180;59064;45.294;11.816;2022-12-18T03:18:19;102635.60;;;4.40
68939;BMP180;59064;45.294;11.816;2022-12-18T03:20:48;102643.20;;;4.32
68939;BMP180;59064;45.294;11.816;2022-12-18T03:23:23;102650.40;;;4.30
68939;BMP180;59064;45.294;11.816;2022-12-18T03:25:53;102650.40;;;4.30
68939;BMP180;59064;45.294;11.816;2022-12-18T03:28:22;102652.20;;;4.24
68939;BMP180;59064;45.294;11.816;2022-12-18T03:30:52;102648.00;;;4.20
68939;BMP180;59064;45.294;11.816;2022-12-18T03:33:37;102645.80;;;4.20
68939;BMP180;59064;45.294;11.816;2022-12-18T03:36:05;102646.00;;;4.20
68939;BMP180;59064;45.294;11.816;2022-12-18T03:38:32;102642.20;;;4.20
68939;BMP180;59064;45.294;11.816;2022-12-18T03:41:19;102639.40;;;4.14
68939;BMP180;59064;45.294;11.816;2022-12-18T03:43:54;102648.00;;;4.10
68939;BMP180;59064;45.294;11.816;2022-12-18T03:47:09;102646.60;;;4.00
68939;BMP180;59064;45.294;11.816;2022-12-18T03:49:54;102662.80;;;4.00
68939;BMP180;59064;45.294;11.816;2022-12-18T03:52:30;102661.20;;;4.00
68939;BMP180;59064;45.294;11.816;2022-12-18T03:54:59;102663.00;;;4.00
68939;BMP180;59064;45.294;11.816;2022-12-18T03:57:29;102666.60;;;4.00
68939;BMP180;59064;45.294;11.816;2022-12-18T04:00:03;102660.40;;;4.00
68939;BMP180;59064;45.294;11.816;2022-12-18T04:02:31;102660.80;;;4.00
68939;BMP180;59064;45.294;11.816;2022-12-18T04:04:59;102664.60;;;4.00
68939;BMP180;59064;45.294;11.816;2022-12-18T04:07:28;102667.40;;;4.00
68939;BMP180;59064;45.294;11.816;2022-12-18T04:09:56;102674.00;;;4.00
68939;BMP180;59064;45.294;11.816;2022-12-18T04:12:25;102682.20;;;4.00
68939;BMP180;59064;45.294;11.816;2022-12-18T04:14:52;102686.40;;;4.00
68939;BMP180;59064;45.294;11.816;2022-12-18T04:17:18;102686.40;;;4.00
68939;BMP180;59064;45.294;11.816;2022-12-18T04:19:45;102693.20;;;4.00
68939;BMP180;59064;45.294;11.816;2022-12-18T04:22:11;102699.60;;;4.02
68939;BMP180;59064;45.294;11.816;2022-12-18T04:24:37;102702.40;;;4.00
68939;BMP180;59064;45.294;11.816;2022-12-18T04:27:05;102705.00;;;4.00
68939;BMP180;59064;45.294;11.816;2022-12-18T04:29:33;102711.20;;;4.00
68939;BMP180;59064;45.294;11.816;2022-12-18T04:32:02;102709.80;;;4.00
68939;BMP180;59064;45.294;11.816;2022-12-18T04:34:30;102719.60;;;4.00
68939;BMP180;59064;45.294;11.816;2022-12-18T04:36:58;102720.00;;;3.98
68939;BMP180;59064;45.294;11.816;2022-12-18T04:39:25;102720.20;;;3.90
68939;BMP180;59064;45.294;11.816;2022-12-18T04:41:51;102719.80;;;3.90
68939;BMP180;59064;45.294;11.816;2022-12-18T04:44:17;102719.60;;;3.82
68939;BMP180;59064;45.294;11.816;2022-12-18T04:46:44;102721.00;;;3.80
68939;BMP180;59064;45.294;11.816;2022-12-18T04:49:12;102728.60;;;3.80
68939;BMP180;59064;45.294;11.816;2022-12-18T04:51:39;102735.40;;;3.80
68939;BMP180;59064;45.294;11.816;2022-12-18T04:54:06;102738.40;;;3.80
68939;BMP180;59064;45.294;11.816;2022-12-18T04:56:33;102742.20;;;3.70
68939;BMP180;59064;45.294;11.816;2022-12-18T04:59:00;102746.20;;;3.70
68939;BMP180;59064;45.294;11.816;2022-12-18T05:01:26;102748.60;;;3.60
68939;BMP180;59064;45.294;11.816;2022-12-18T05:03:53;102748.40;;;3.60
68939;BMP180;59064;45.294;11.816;2022-12-18T05:06:19;102749.80;;;3.60
68939;BMP180;59064;45.294;11.816;2022-12-18T05:08:46;102743.00;;;3.50
68939;BMP180;59064;45.294;11.816;2022-12-18T05:11:14;102752.60;;;3.50
68939;BMP180;59064;45.294;11.816;2022-12-18T05:13:41;102759.20;;;3.40
68939;BMP180;59064;45.294;11.816;2022-12-18T05:16:07;102758.20;;;3.40
68939;BMP180;59064;45.294;11.816;2022-12-18T05:18:34;102761.60;;;3.30
68939;BMP180;59064;45.294;11.816;2022-12-18T05:21:00;102765.40;;;3.30
68939;BMP180;59064;45.294;11.816;2022-12-18T05:23:27;102768.60;;;3.30
68939;BMP180;59064;45.294;11.816;2022-12-18T05:25:55;102773.20;;;3.30
68939;BMP180;59064;45.294;11.816;2022-12-18T05:28:23;102771.80;;;3.30
68939;BMP180;59064;45.294;11.816;2022-12-18T05:30:51;102778.60;;;3.30
68939;BMP180;59064;45.294;11.816;2022-12-18T05:33:20;102785.60;;;3.30
68939;BMP180;59064;45.294;11.816;2022-12-18T05:35:54;102784.20;;;3.30
68939;BMP180;59064;45.294;11.816;2022-12-18T05:38:22;102787.60;;;3.24
68939;BMP180;59064;45.294;11.816;2022-12-18T05:40:49;102790.00;;;3.20
68939;BMP180;59064;45.294;11.816;2022-12-18T05:43:15;102790.20;;;3.20
68939;BMP180;59064;45.294;11.816;2022-12-18T05:45:43;102785.60;;;3.20
68939;BMP180;59064;45.294;11.816;2022-12-18T05:48:09;102794.80;;;3.20
68939;BMP180;59064;45.294;11.816;2022-12-18T05:50:39;102803.80;;;3.20
68939;BMP180;59064;45.294;11.816;2022-12-18T05:53:06;102802.20;;;3.20
68939;BMP180;59064;45.294;11.816;2022-12-18T05:55:36;102797.60;;;3.20
68939;BMP180;59064;45.294;11.816;2022-12-18T05:58:03;102797.40;;;3.20
68939;BMP180;59064;45.294;11.816;2022-12-18T06:00:30;102806.20;;;3.20
68939;BMP180;59064;45.294;11.816;2022-12-18T06:02:58;102805.20;;;3.10
68939;BMP180;59064;45.294;11.816;2022-12-18T06:08:56;102819.00;;;3.10
68939;BMP180;59064;45.294;11.816;2022-12-18T06:11:24;102821.80;;;3.10
68939;BMP180;59064;45.294;11.816;2022-12-18T06:13:51;102826.80;;;3.10
68939;BMP180;59064;45.294;11.816;2022-12-18T06:16:16;102832.20;;;3.10
68939;BMP180;59064;45.294;11.816;2022-12-18T06:18:42;102832.20;;;3.10
68939;BMP180;59064;45.294;11.816;2022-12-18T06:21:07;102827.60;;;3.10
68939;BMP180;59064;45.294;11.816;2022-12-18T06:23:33;102831.20;;;3.10
68939;BMP180;59064;45.294;11.816;2022-12-18T06:26:02;102833.40;;;3.10
68939;BMP180;59064;45.294;11.816;2022-12-18T06:28:28;102834.40;;;3.08
68939;BMP180;59064;45.294;11.816;2022-12-18T06:30:53;102841.40;;;3.00
68939;BMP180;59064;45.294;11.816;2022-12-18T06:33:19;102843.20;;;3.00
68939;BMP180;59064;45.294;11.816;2022-12-18T06:35:45;102846.20;;;2.92
68939;BMP180;59064;45.294;11.816;2022-12-18T06:38:10;102854.80;;;2.90
68939;BMP180;59064;45.294;11.816;2022-12-18T06:40:37;102864.80;;;2.90
68939;BMP180;59064;45.294;11.816;2022-12-18T06:43:04;102866.60;;;2.90
68939;BMP180;59064;45.294;11.816;2022-12-18T06:45:30;102870.40;;;2.90
68939;BMP180;59064;45.294;11.816;2022-12-18T06:47:55;102868.80;;;2.88
68939;BMP180;59064;45.294;11.816;2022-12-18T06:50:21;102869.80;;;2.90
68939;BMP180;59064;45.294;11.816;2022-12-18T06:52:47;102872.40;;;2.90
68939;BMP180;59064;45.294;11.816;2022-12-18T06:55:13;102876.40;;;2.90
68939;BMP180;59064;45.294;11.816;2022-12-18T06:57:38;102872.40;;;2.90
68939;BMP180;59064;45.294;11.816;2022-12-18T07:00:06;102881.80;;;2.90
68939;BMP180;59064;45.294;11.816;2022-12-18T07:02:32;102883.80;;;2.90
68939;BMP180;59064;45.294;11.816;2022-12-18T07:04:58;102888.80;;;2.98
68939;BMP180;59064;45.294;11.816;2022-12-18T07:07:24;102891.00;;;3.00
68939;BMP180;59064;45.294;11.816;2022-12-18T07:09:50;102893.60;;;3.06
68939;BMP180;59064;45.294;11.816;2022-12-18T07:12:16;102893.80;;;3.10
68939;BMP180;59064;45.294;11.816;2022-12-18T07:14:42;102893.40;;;3.10
68939;BMP180;59064;45.294;11.816;2022-12-18T07:17:08;102901.00;;;3.18
68939;BMP180;59064;45.294;11.816;2022-12-18T07:19:33;102904.80;;;3.20
68939;BMP180;59064;45.294;11.816;2022-12-18T07:21:59;102902.00;;;3.30
68939;BMP180;59064;45.294;11.816;2022-12-18T07:24:25;102898.80;;;3.34
68939;BMP180;59064;45.294;11.816;2022-12-18T07:26:51;102904.20;;;3.40
68939;BMP180;59064;45.294;11.816;2022-12-18T07:29:16;102910.20;;;3.48
68939;BMP180;59064;45.294;11.816;2022-12-18T07:31:42;102915.80;;;3.50
68939;BMP180;59064;45.294;11.816;2022-12-18T07:34:14;102916.40;;;3.60
68939;BMP180;59064;45.294;11.816;2022-12-18T07:36:40;102917.80;;;3.70
68939;BMP180;59064;45.294;11.816;2022-12-18T07:39:06;102923.60;;;3.80
68939;BMP180;59064;45.294;11.816;2022-12-18T07:41:31;102931.60;;;3.88
68939;BMP180;59064;45.294;11.816;2022-12-18T07:43:57;102936.00;;;3.92
68939;BMP180;59064;45.294;11.816;2022-12-18T07:46:23;102937.20;;;4.00
68939;BMP180;59064;45.294;11.816;2022-12-18T07:48:48;102945.20;;;4.10
68939;BMP180;59064;45.294;11.816;2022-12-18T07:51:14;102947.20;;;4.20
68939;BMP180;59064;45.294;11.816;2022-12-18T07:53:39;102947.00;;;4.30
68939;BMP180;59064;45.294;11.816;2022-12-18T07:56:08;102944.80;;;4.40
68939;BMP180;59064;45.294;11.816;2022-12-18T07:58:35;102945.40;;;4.50
68939;BMP180;59064;45.294;11.816;2022-12-18T08:01:10;102962.60;;;4.58
68939;BMP180;59064;45.294;11.816;2022-12-18T08:03:36;102966.20;;;4.68
68939;BMP180;59064;45.294;11.816;2022-12-18T08:06:05;102963.80;;;4.70
68939;BMP180;59064;45.294;11.816;2022-12-18T08:08:33;102969.60;;;4.80
68939;BMP180;59064;45.294;11.816;2022-12-18T08:10:58;102973.60;;;4.90
68939;BMP180;59064;45.294;11.816;2022-12-18T08:13:25;102974.00;;;5.00
68939;BMP180;59064;45.294;11.816;2022-12-18T08:16:01;102982.60;;;5.10
68939;BMP180;59064;45.294;11.816;2022-12-18T08:18:27;102984.00;;;5.14
68939;BMP180;59064;45.294;11.816;2022-12-18T08:20:54;102994.60;;;5.20
68939;BMP180;59064;45.294;11.816;2022-12-18T08:23:20;102992.80;;;5.30
68939;BMP180;59064;45.294;11.816;2022-12-18T08:25:46;102991.20;;;5.36
68939;BMP180;59064;45.294;11.816;2022-12-18T08:28:11;102991.00;;;5.40
68939;BMP180;59064;45.294;11.816;2022-12-18T08:30:37;102997.40;;;5.50
68939;BMP180;59064;45.294;11.816;2022-12-18T08:33:03;102994.00;;;5.60
68939;BMP180;59064;45.294;11.816;2022-12-18T08:35:28;102998.80;;;5.68
68939;BMP180;59064;45.294;11.816;2022-12-18T08:37:54;103000.40;;;5.70
68939;BMP180;59064;45.294;11.816;2022-12-18T08:40:19;103009.80;;;5.80
68939;BMP180;59064;45.294;11.816;2022-12-18T08:42:45;103015.60;;;5.90
68939;BMP180;59064;45.294;11.816;2022-12-18T08:45:29;103022.60;;;6.00
68939;BMP180;59064;45.294;11.816;2022-12-18T08:47:59;103028.40;;;6.00
68939;BMP180;59064;45.294;11.816;2022-12-18T08:50:24;103034.40;;;6.00
68939;BMP180;59064;45.294;11.816;2022-12-18T08:52:50;103030.80;;;6.10
68939;BMP180;59064;45.294;11.816;2022-12-18T08:55:15;103039.60;;;6.12
68939;BMP180;59064;45.294;11.816;2022-12-18T08:57:41;103040.40;;;6.20
68939;BMP180;59064;45.294;11.816;2022-12-18T09:00:07;103046.40;;;6.20
68939;BMP180;59064;45.294;11.816;2022-12-18T09:02:33;103049.80;;;6.30
68939;BMP180;59064;45.294;11.816;2022-12-18T09:04:59;103051.00;;;6.32
68939;BMP180;59064;45.294;11.816;2022-12-18T09:07:24;103053.20;;;6.40
68939;BMP180;59064;45.294;11.816;2022-12-18T09:09:50;103060.00;;;6.40
68939;BMP180;59064;45.294;11.816;2022-12-18T09:12:16;103060.80;;;6.48
68939;BMP180;59064;45.294;11.816;2022-12-18T09:14:41;103062.00;;;6.50
68939;BMP180;59064;45.294;11.816;2022-12-18T09:17:07;103061.20;;;6.50
68939;BMP180;59064;45.294;11.816;2022-12-18T09:19:33;103058.00;;;6.50
68939;BMP180;59064;45.294;11.816;2022-12-18T09:21:59;103065.40;;;6.50
68939;BMP180;59064;45.294;11.816;2022-12-18T09:24:25;103064.20;;;6.50
68939;BMP180;59064;45.294;11.816;2022-12-18T09:26:54;103059.60;;;6.50
68939;BMP180;59064;45.294;11.816;2022-12-18T09:29:22;103062.40;;;6.50
68939;BMP180;59064;45.294;11.816;2022-12-18T09:31:48;103065.60;;;6.50
68939;BMP180;59064;45.294;11.816;2022-12-18T09:34:15;103065.40;;;6.52
68939;BMP180;59064;45.294;11.816;2022-12-18T09:36:42;103068.60;;;6.54
68939;BMP180;59064;45.294;11.816;2022-12-18T09:39:07;103065.00;;;6.52
68939;BMP180;59064;45.294;11.816;2022-12-18T09:46:44;103070.20;;;6.50
68939;BMP180;59064;45.294;11.816;2022-12-18T09:49:16;103069.40;;;6.46
68939;BMP180;59064;45.294;11.816;2022-12-18T09:51:54;103068.20;;;6.40
68939;BMP180;59064;45.294;11.816;2022-12-18T09:55:00;103065.60;;;6.50
68939;BMP180;59064;45.294;11.816;2022-12-18T09:57:30;103062.80;;;6.50
68939;BMP180;59064;45.294;11.816;2022-12-18T10:00:24;103058.20;;;6.50
68939;BMP180;59064;45.294;11.816;2022-12-18T10:03:01;103050.80;;;6.60
68939;BMP180;59064;45.294;11.816;2022-12-18T10:10:53;103050.00;;;6.80
68939;BMP180;59064;45.294;11.816;2022-12-18T10:13:42;103055.60;;;6.90
68939;BMP180;59064;45.294;11.816;2022-12-18T10:16:29;103051.20;;;7.00
68939;BMP180;59064;45.294;11.816;2022-12-18T10:19:03;103045.40;;;7.00
68939;BMP180;59064;45.294;11.816;2022-12-18T10:21:42;103044.80;;;7.10
68939;BMP180;59064;45.294;11.816;2022-12-18T10:24:26;103044.00;;;7.20
68939;BMP180;59064;45.294;11.816;2022-12-18T10:27:06;103039.80;;;7.30
68939;BMP180;59064;45.294;11.816;2022-12-18T10:29:35;103035.00;;;7.36
68939;BMP180;59064;45.294;11.816;2022-12-18T10:32:00;103030.60;;;7.40
68939;BMP180;59064;45.294;11.816;2022-12-18T10:34:26;103032.40;;;7.52
68939;BMP180;59064;45.294;11.816;2022-12-18T10:36:51;103031.20;;;7.64
68939;BMP180;59064;45.294;11.816;2022-12-18T10:39:23;103034.60;;;7.74
68939;BMP180;59064;45.294;11.816;2022-12-18T10:41:49;103037.00;;;7.90
68939;BMP180;59064;45.294;11.816;2022-12-18T10:44:20;103035.60;;;8.00
68939;BMP180;59064;45.294;11.816;2022-12-18T10:46:55;103040.20;;;8.20
68939;BMP180;59064;45.294;11.816;2022-12-18T10:49:52;103039.20;;;8.40
68939;BMP180;59064;45.294;11.816;2022-12-18T10:52:23;103036.60;;;8.50
68939;BMP180;59064;45.294;11.816;2022-12-18T10:54:55;103030.60;;;8.50
68939;BMP180;59064;45.294;11.816;2022-12-18T10:57:36;103032.80;;;8.60
68939;BMP180;59064;45.294;11.816;2022-12-18T11:00:28;103034.40;;;8.70
68939;BMP180;59064;45.294;11.816;2022-12-18T11:02:55;103041.60;;;8.80
68939;BMP180;59064;45.294;11.816;2022-12-18T11:05:34;103041.00;;;8.80
68939;BMP180;59064;45.294;11.816;2022-12-18T11:08:02;103036.00;;;8.90
68939;BMP180;59064;45.294;11.816;2022-12-18T11:10:35;103040.60;;;9.00
68939;BMP180;59064;45.294;11.816;2022-12-18T11:13:21;103039.60;;;9.10
68939;BMP180;59064;45.294;11.816;2022-12-18T11:15:48;103043.40;;;9.30
68939;BMP180;59064;45.294;11.816;2022-12-18T11:18:28;103042.40;;;9.30
68939;BMP180;59064;45.294;11.816;2022-12-18T11:20:59;103041.20;;;9.36
68939;BMP180;59064;45.294;11.816;2022-12-18T11:23:26;103037.60;;;9.56
68939;BMP180;59064;45.294;11.816;2022-12-18T11:25:54;103039.60;;;9.60
68939;BMP180;59064;45.294;11.816;2022-12-18T11:28:40;103043.60;;;9.70
68939;BMP180;59064;45.294;11.816;2022-12-18T11:33:38;103036.80;;;9.90
68939;BMP180;59064;45.294;11.816;2022-12-18T11:36:08;103030.40;;;9.90
68939;BMP180;59064;45.294;11.816;2022-12-18T11:38:40;103029.40;;;9.90
68939;BMP180;59064;45.294;11.816;2022-12-18T11:44:00;103026.80;;;10.00
68939;BMP180;59064;45.294;11.816;2022-12-18T11:46:34;103026.80;;;10.14
68939;BMP180;59064;45.294;11.816;2022-12-18T11:49:08;103029.60;;;10.20
68939;BMP180;59064;45.294;11.816;2022-12-18T11:54:32;103024.60;;;10.50
68939;BMP180;59064;45.294;11.816;2022-12-18T11:59:55;103028.20;;;10.78
68939;BMP180;59064;45.294;11.816;2022-12-18T12:02:40;103028.20;;;10.90
68939;BMP180;59064;45.294;11.816;2022-12-18T12:28:18;103034.20;;;11.92
68939;BMP180;59064;45.294;11.816;2022-12-18T12:36:20;103043.20;;;12.58
68939;BMP180;59064;45.294;11.816;2022-12-18T12:38:53;103043.20;;;12.60
68939;BMP180;59064;45.294;11.816;2022-12-18T12:41:23;103034.40;;;12.60
68939;BMP180;59064;45.294;11.816;2022-12-18T12:44:14;103027.20;;;12.80
68939;BMP180;59064;45.294;11.816;2022-12-18T12:46:42;103022.40;;;12.70
68939;BMP180;59064;45.294;11.816;2022-12-18T12:49:20;103024.00;;;12.70
68939;BMP180;59064;45.294;11.816;2022-12-18T12:51:56;103023.00;;;12.90
68939;BMP180;59064;45.294;11.816;2022-12-18T12:54:24;103016.40;;;13.10
68939;BMP180;59064;45.294;11.816;2022-12-18T12:57:17;103019.20;;;13.20
68939;BMP180;59064;45.294;11.816;2022-12-18T13:08:51;103023.40;;;13.20
68939;BMP180;59064;45.294;11.816;2022-12-18T13:10:58;103025.20;;;13.10
68939;BMP180;59064;45.294;11.816;2022-12-18T13:14:03;103033.20;;;13.04
68939;BMP180;59064;45.294;11.816;2022-12-18T13:16:28;103036.60;;;13.10
68939;BMP180;59064;45.294;11.816;2022-12-18T13:18:56;103028.40;;;13.30
68939;BMP180;59064;45.294;11.816;2022-12-18T13:21:33;103027.20;;;13.22
68939;BMP180;59064;45.294;11.816;2022-12-18T13:24:23;103026.40;;;13.30
68939;BMP180;59064;45.294;11.816;2022-12-18T13:26:50;103029.20;;;13.30
68939;BMP180;59064;45.294;11.816;2022-12-18T13:29:45;103028.80;;;13.30
68939;BMP180;59064;45.294;11.816;2022-12-18T13:32:24;103029.00;;;13.66
68939;BMP180;59064;45.294;11.816;2022-12-18T13:37:52;103035.80;;;14.06
68939;BMP180;59064;45.294;11.816;2022-12-18T13:43:38;103028.40;;;14.50
68939;BMP180;59064;45.294;11.816;2022-12-18T13:46:47;103029.60;;;14.14
68939;BMP180;59064;45.294;11.816;2022-12-18T13:51:48;103026.80;;;13.30
68939;BMP180;59064;45.294;11.816;2022-12-18T13:54:35;103025.00;;;13.00
68939;BMP180;59064;45.294;11.816;2022-12-18T13:56:59;103027.00;;;12.60
68939;BMP180;59064;45.294;11.816;2022-12-18T13:59:35;103020.20;;;12.20
68939;BMP180;59064;45.294;11.816;2022-12-18T14:02:13;103015.00;;;12.20
68939;BMP180;59064;45.294;11.816;2022-12-18T14:04:39;103012.80;;;12.10
68939;BMP180;59064;45.294;11.816;2022-12-18T14:07:23;103014.20;;;11.96
68939;BMP180;59064;45.294;11.816;2022-12-18T14:09:53;103014.60;;;11.90
68939;BMP180;59064;45.294;11.816;2022-12-18T14:12:26;103011.60;;;11.70
68939;BMP180;59064;45.294;11.816;2022-12-18T14:15:35;103014.20;;;11.58
68939;BMP180;59064;45.294;11.816;2022-12-18T14:18:26;103015.00;;;11.30
68939;BMP180;59064;45.294;11.816;2022-12-18T14:20:57;103020.00;;;11.20
68939;BMP180;59064;45.294;11.816;2022-12-18T14:25:52;103024.00;;;11.00
68939;BMP180;59064;45.294;11.816;2022-12-18T14:28:18;103022.20;;;11.04
68939;BMP180;59064;45.294;11.816;2022-12-18T14:30:45;103021.80;;;11.10
68939;BMP180;59064;45.294;11.816;2022-12-18T14:33:12;103031.40;;;11.20
68939;BMP180;59064;45.294;11.816;2022-12-18T14:35:41;103026.40;;;11.24
68939;BMP180;59064;45.294;11.816;2022-12-18T14:41:00;103035.20;;;11.30
68939;BMP180;59064;45.294;11.816;2022-12-18T14:43:29;103038.20;;;11.20
68939;BMP180;59064;45.294;11.816;2022-12-18T14:45:55;103044.00;;;11.20
68939;BMP180;59064;45.294;11.816;2022-12-18T14:48:22;103044.60;;;11.10
68939;BMP180;59064;45.294;11.816;2022-12-18T14:50:59;103042.80;;;11.00
68939;BMP180;59064;45.294;11.816;2022-12-18T14:56:03;103040.80;;;10.60
68939;BMP180;59064;45.294;11.816;2022-12-18T14:58:29;103047.20;;;10.30
68939;BMP180;59064;45.294;11.816;2022-12-18T15:00:55;103048.00;;;10.00
68939;BMP180;59064;45.294;11.816;2022-12-18T15:03:21;103053.80;;;9.70
68939;BMP180;59064;45.294;11.816;2022-12-18T15:05:47;103054.20;;;9.50
68939;BMP180;59064;45.294;11.816;2022-12-18T15:08:35;103054.60;;;9.32
68939;BMP180;59064;45.294;11.816;2022-12-18T15:11:02;103060.80;;;9.10
68939;BMP180;59064;45.294;11.816;2022-12-18T15:13:27;103060.60;;;8.90
68939;BMP180;59064;45.294;11.816;2022-12-18T15:15:55;103054.40;;;8.62
68939;BMP180;59064;45.294;11.816;2022-12-18T15:18:31;103056.20;;;8.40
68939;BMP180;59064;45.294;11.816;2022-12-18T15:21:03;103058.20;;;8.20
68939;BMP180;59064;45.294;11.816;2022-12-18T15:23:48;103057.60;;;8.00
68939;BMP180;59064;45.294;11.816;2022-12-18T15:26:17;103059.80;;;7.80
68939;BMP180;59064;45.294;11.816;2022-12-18T15:28:51;103068.20;;;7.60
68939;BMP180;59064;45.294;11.816;2022-12-18T15:31:29;103070.60;;;7.44
68939;BMP180;59064;45.294;11.816;2022-12-18T15:36:23;103073.20;;;7.10
68939;BMP180;59064;45.294;11.816;2022-12-18T15:38:50;103074.60;;;7.00
68939;BMP180;59064;45.294;11.816;2022-12-18T15:41:20;103072.40;;;6.90
68939;BMP180;59064;45.294;11.816;2022-12-18T15:43:48;103076.40;;;6.80
68939;BMP180;59064;45.294;11.816;2022-12-18T15:46:17;103083.00;;;6.70
68939;BMP180;59064;45.294;11.816;2022-12-18T15:48:45;103081.00;;;6.60
68939;BMP180;59064;45.294;11.816;2022-12-18T15:51:14;103080.20;;;6.50
68939;BMP180;59064;45.294;11.816;2022-12-18T15:53:41;103081.20;;;6.40
68939;BMP180;59064;45.294;11.816;2022-12-18T15:56:11;103081.60;;;6.36
68939;BMP180;59064;45.294;11.816;2022-12-18T15:58:59;103083.80;;;6.30